< Typhoon 199710 1997 Season Typhoon 199712 >
Typhoon 199711 (TINA)
General InformationTrack Information on Google MapsDetailed Wind InformationList of All Images || Disaster Info.ResourceGoogle EarthGE AnimationAtom FeedGeoJSON
Detalied Best Track (Time Zone = UTC)
Year Month Day Hour Lat. Long. Pressure (hPa) Wind (kt) Class Image Chart
1997 7 29 00 14.9 135.5 1006 0 2 Image Chart
1997 7 29 06 15.0 135.5 1004 0 2 Image Chart
1997 7 29 12 15.1 135.4 1004 0 2 Image Chart
1997 7 29 18 15.2 135.2 1002 0 2 Image Chart
1997 7 30 00 15.1 135.0 1002 0 2 Image Chart
1997 7 30 06 14.9 134.9 1000 0 2 Image Chart
1997 7 30 12 14.8 135.0 1000 0 2 Image Chart
1997 7 30 18 14.4 135.2 998 0 2 Image Chart
1997 7 31 00 13.8 135.2 998 0 2 Image Chart
1997 7 31 06 13.6 135.3 996 35 3 Image Chart
1997 7 31 12 13.6 135.2 996 35 3 Image Chart
1997 7 31 18 13.6 135.1 994 40 3 Image Chart
1997 8 1 00 13.6 135.0 992 40 3 Image Chart
1997 8 1 06 13.6 134.8 990 45 3 Image Chart
1997 8 1 12 13.7 134.6 990 45 3 Image Chart
1997 8 1 18 13.7 134.1 990 45 3 Image Chart
1997 8 2 00 13.8 133.2 985 50 4 Image Chart
1997 8 2 06 14.0 132.5 985 50 4 Image Chart
1997 8 2 12 14.2 132.1 980 55 4 Image Chart
1997 8 2 18 14.3 131.8 980 55 4 Image Chart
1997 8 3 00 14.5 131.5 975 60 4 Image Chart
1997 8 3 06 15.0 130.9 975 60 4 Image Chart
1997 8 3 12 15.6 130.2 975 60 4 Image Chart
1997 8 3 18 16.3 129.7 975 60 4 Image Chart
1997 8 4 00 17.1 129.1 970 65 5 Image Chart
1997 8 4 06 17.9 128.4 970 65 5 Image Chart
1997 8 4 12 18.6 127.8 970 65 5 Image Chart
1997 8 4 18 19.2 127.3 970 65 5 Image Chart
1997 8 5 00 20.0 127.0 965 70 5 Image Chart
1997 8 5 06 20.9 126.7 965 70 5 Image Chart
1997 8 5 12 21.6 126.3 965 70 5 Image Chart
1997 8 5 15 21.8 126.1 965 70 5 Image Chart
1997 8 5 18 22.1 126.1 965 70 5 Image Chart
1997 8 5 21 22.6 126.0 965 70 5 Image Chart
1997 8 6 00 23.1 126.2 960 75 5 Image Chart
1997 8 6 03 23.6 126.3 960 75 5 Image Chart
1997 8 6 06 24.1 126.4 960 75 5 Image Chart
1997 8 6 09 24.5 126.4 960 75 5 Image Chart
1997 8 6 12 24.9 126.4 960 75 5 Image Chart
1997 8 6 15 25.3 126.3 960 75 5 Image Chart
1997 8 6 18 25.8 126.3 960 75 5 Image Chart
1997 8 6 21 26.3 126.4 960 75 5 Image Chart
1997 8 7 00 26.8 126.4 955 75 5 Image Chart
1997 8 7 03 27.2 126.3 955 75 5 Image Chart
1997 8 7 06 27.6 126.2 955 75 5 Image Chart
1997 8 7 09 27.9 126.0 955 75 5 Image Chart
1997 8 7 12 28.3 126.0 960 75 5 Image Chart
1997 8 7 15 28.8 126.1 960 75 5 Image Chart
1997 8 7 18 29.1 126.2 960 75 5 Image Chart
1997 8 7 21 29.5 126.2 960 75 5 Image Chart
1997 8 8 00 30.1 126.2 965 70 5 Image Chart
1997 8 8 03 30.6 126.2 965 70 5 Image Chart
1997 8 8 06 31.3 126.2 970 65 5 Image Chart
1997 8 8 09 31.9 126.2 970 65 5 Image Chart
1997 8 8 12 32.4 126.2 975 60 4 Image Chart
1997 8 8 15 33.1 126.5 980 55 4 Image Chart
1997 8 8 18 33.9 127.0 985 50 4 Image Chart
1997 8 8 21 34.6 127.8 985 50 4 Image Chart
1997 8 9 00 35.3 128.6 988 50 4 Image Chart
1997 8 9 03 36.5 129.8 990 45 3 Image Chart
1997 8 9 06 37.6 131.0 990 45 3 Image Chart
1997 8 9 09 38.7 132.6 990 0 6 Image Chart
1997 8 9 12 39.9 134.8 990 0 6 Image Chart
1997 8 9 18 41.9 139.0 990 0 6 Image Chart
1997 8 10 00 42.2 144.6 996 0 6 Image Chart
1997 8 10 06 42.1 149.4 996 0 6 Image Chart
1997 8 10 12 41.6 154.6 996 0 6 Image Chart
1997 8 10 18 41.5 157.7 996 0 6 Image Chart
Japan Meteorological Agency Best Track Data | Correction Date : 1998-01-19
< Typhoon 199710 1997 Season Typhoon 199712 >

Help